Time;durP1;ratioP1;P1;durP2;ratioP2;P2;SDS_P1;SDS_P2;PMS_P1;PMS_P2;Temp;Humidity;BMP_temperature;BMP_pressure;BME280_temperature;BME280_humidity;BME280_pressure;Samples;Min_cycle;Max_cycle;Signal;HPM_P1;HPM_P2
2021/08/13 00:00:08;;;;;;;16.50;12.05;;;;;;;15.69;100.00;101912.16;2616165;36;20153;-62
2021/08/13 00:02:36;;;;;;;18.15;12.48;;;;;;;15.65;100.00;101906.19;2616939;36;20081;-62
2021/08/13 00:05:04;;;;;;;16.58;11.63;;;;;;;15.68;100.00;101899.59;2616801;36;20605;-63
2021/08/13 00:07:33;;;;;;;16.10;11.18;;;;;;;15.68;100.00;101919.47;2616881;36;20137;-62
2021/08/13 00:10:01;;;;;;;15.57;11.37;;;;;;;15.72;100.00;101909.16;2617036;36;20030;-62
2021/08/13 00:12:29;;;;;;;17.58;12.13;;;;;;;15.69;100.00;101902.16;2617031;36;20054;-62
2021/08/13 00:14:59;;;;;;;22.23;12.10;;;;;;;15.70;100.00;101903.88;2616955;36;20114;-62
2021/08/13 00:17:28;;;;;;;15.02;10.77;;;;;;;15.66;100.00;101902.44;2617224;36;20023;-62
2021/08/13 00:19:56;;;;;;;18.02;11.43;;;;;;;15.58;100.00;101902.34;2616815;36;20125;-62
2021/08/13 00:22:25;;;;;;;17.45;11.85;;;;;;;15.60;100.00;101905.75;2616887;36;20121;-62
2021/08/13 00:24:53;;;;;;;15.37;11.67;;;;;;;15.56;100.00;101910.63;2616783;31;20130;-62
2021/08/13 00:27:21;;;;;;;14.45;10.95;;;;;;;15.50;100.00;101908.47;2616653;36;20037;-61
2021/08/13 00:29:50;;;;;;;17.65;12.15;;;;;;;15.49;100.00;101917.63;2616176;36;20110;-63
2021/08/13 00:32:19;;;;;;;15.50;11.40;;;;;;;15.48;100.00;101920.47;2616869;36;20046;-62
2021/08/13 00:34:47;;;;;;;16.05;11.60;;;;;;;15.36;100.00;101928.72;2617466;31;20514;-62
2021/08/13 00:37:16;;;;;;;14.83;11.10;;;;;;;15.35;100.00;101924.28;2617224;36;20073;-62
2021/08/13 00:39:44;;;;;;;15.35;10.98;;;;;;;15.41;100.00;101918.34;2616952;36;20441;-61
2021/08/13 00:42:12;;;;;;;15.10;11.03;;;;;;;15.45;100.00;101918.88;2616541;36;20069;-62
2021/08/13 00:44:41;;;;;;;17.23;11.02;;;;;;;15.46;100.00;101922.44;2616602;31;20567;-62
2021/08/13 00:47:09;;;;;;;13.67;10.70;;;;;;;15.47;100.00;101918.75;2616985;36;20146;-63
2021/08/13 00:49:38;;;;;;;13.33;10.60;;;;;;;15.43;100.00;101915.47;2616979;36;20034;-62
2021/08/13 00:52:08;;;;;;;16.85;11.70;;;;;;;15.36;100.00;101917.88;2617560;31;20518;-62
2021/08/13 00:54:36;;;;;;;;;;;;;;;15.38;100.00;101915.03;2617620;31;20535;-61
2021/08/13 00:57:04;;;;;;;15.40;11.88;;;;;;;15.39;100.00;101916.75;2616599;36;19993;-63
2021/08/13 00:59:33;;;;;;;17.65;12.52;;;;;;;15.43;100.00;101920.91;2617231;36;20042;-63
2021/08/13 01:02:01;;;;;;;18.65;12.18;;;;;;;15.46;100.00;101922.44;2617337;31;20170;-62
2021/08/13 01:04:29;;;;;;;14.80;11.85;;;;;;;15.34;100.00;101924.44;2617286;31;20106;-61
2021/08/13 01:06:59;;;;;;;15.38;12.40;;;;;;;15.38;100.00;101920.47;2617639;36;20597;-61
2021/08/13 01:09:27;;;;;;;14.88;11.95;;;;;;;15.40;100.00;101919.31;2617762;36;20165;-63
2021/08/13 01:12:02;;;;;;;18.33;13.30;;;;;;;15.29;100.00;101922.16;2617222;36;20605;-62
2021/08/13 01:14:42;;;;;;;18.02;13.25;;;;;;;15.17;100.00;101923.28;2617302;36;20527;-62
2021/08/13 01:17:12;;;;;;;19.15;13.52;;;;;;;15.19;100.00;101924.00;2617634;36;20069;-61
2021/08/13 01:19:50;;;;;;;18.48;13.15;;;;;;;15.18;100.00;101922.28;2617541;36;20051;-62
2021/08/13 01:22:27;;;;;;;19.30;14.38;;;;;;;15.18;100.00;101922.28;2617588;36;20479;-62
2021/08/13 01:24:57;;;;;;;21.23;13.95;;;;;;;15.13;100.00;101932.69;2617071;36;20593;-62
2021/08/13 01:27:31;;;;;;;23.02;15.20;;;;;;;15.13;100.00;101932.69;2617104;36;20077;-63
2021/08/13 01:30:04;;;;;;;19.42;14.18;;;;;;;15.05;100.00;101930.69;2617209;36;20069;-62
2021/08/13 01:32:39;;;;;;;18.80;13.73;;;;;;;15.03;100.00;101936.25;2617478;36;20038;-62
2021/08/13 01:35:12;;;;;;;18.42;13.35;;;;;;;15.05;100.00;101942.38;2617877;31;20026;-61
2021/08/13 01:37:45;;;;;;;20.77;14.13;;;;;;;15.08;100.00;101941.25;2617629;36;20085;-62
2021/08/13 01:40:16;;;;;;;20.08;14.68;;;;;;;15.11;100.00;101942.84;2617680;36;20430;-62
2021/08/13 01:42:46;;;;;;;22.08;14.98;;;;;;;15.14;100.00;101939.84;2617617;36;20084;-63
2021/08/13 01:45:17;;;;;;;22.77;15.77;;;;;;;15.11;100.00;101943.69;2617649;31;20125;-64
2021/08/13 01:47:48;;;;;;;20.75;13.75;;;;;;;15.04;100.00;101940.66;2617514;36;20077;-63
2021/08/13 01:50:17;;;;;;;21.02;14.02;;;;;;;15.09;100.00;101942.09;2617064;36;20034;-63
2021/08/13 01:52:46;;;;;;;20.13;14.75;;;;;;;15.16;100.00;101941.41;2617580;31;20554;-64
2021/08/13 01:55:16;;;;;;;21.10;14.05;;;;;;;15.15;100.00;101939.72;2617959;31;20562;-63
2021/08/13 01:57:45;;;;;;;22.52;15.15;;;;;;;15.08;100.00;101941.25;2617640;36;20050;-63
2021/08/13 02:00:17;;;;;;;19.50;14.80;;;;;;;15.05;100.00;101936.13;2617015;36;20029;-62
2021/08/13 02:02:47;;;;;;;20.35;14.40;;;;;;;15.05;100.00;101941.53;2617675;36;20081;-63
2021/08/13 02:05:19;;;;;;;19.52;15.55;;;;;;;15.01;100.00;101940.94;2617470;36;20081;-63
2021/08/13 02:07:50;;;;;;;21.02;15.05;;;;;;;15.01;100.00;101940.09;2617488;36;20554;-64
2021/08/13 02:10:19;;;;;;;21.52;15.10;;;;;;;14.92;100.00;101941.78;2617367;36;20125;-63
2021/08/13 02:12:47;;;;;;;24.00;17.23;;;;;;;14.88;100.00;101946.63;2617467;36;20073;-63
2021/08/13 02:15:16;;;;;;;20.27;14.60;;;;;;;14.97;100.00;101947.66;2616675;36;20085;-63
2021/08/13 02:17:51;;;;;;;19.60;14.70;;;;;;;15.01;100.00;101945.53;2617375;36;22481;-63
2021/08/13 02:20:22;;;;;;;21.95;14.95;;;;;;;15.03;100.00;101946.22;2617076;31;20390;-63
2021/08/13 02:22:50;;;;;;;20.80;15.50;;;;;;;15.02;100.00;101952.66;2617883;31;20074;-63
2021/08/13 02:25:19;;;;;;;23.63;15.15;;;;;;;15.01;100.00;101946.38;2616974;36;20145;-63
2021/08/13 02:27:47;;;;;;;20.47;14.87;;;;;;;14.98;100.00;101941.22;2617349;31;20169;-63
2021/08/13 02:30:16;;;;;;;20.65;14.52;;;;;;;15.03;100.00;101938.97;2616853;36;20142;-64
2021/08/13 02:32:45;;;;;;;20.17;14.17;;;;;;;15.03;100.00;101938.97;2617225;36;20073;-63
2021/08/13 02:35:14;;;;;;;19.50;13.63;;;;;;;15.05;100.00;101946.97;2617429;36;20291;-64
2021/08/13 02:37:50;;;;;;;19.65;14.63;;;;;;;15.04;100.00;101948.78;2618077;31;20505;-64
2021/08/13 02:40:24;;;;;;;22.67;15.02;;;;;;;15.00;100.00;101941.09;2617764;36;20147;-62
2021/08/13 02:42:57;;;;;;;22.38;15.10;;;;;;;15.00;100.00;101941.09;2617635;36;20030;-63
2021/08/13 02:45:27;;;;;;;24.58;15.70;;;;;;;14.95;100.00;101936.09;2617151;36;20581;-63
2021/08/13 02:47:58;;;;;;;25.55;15.82;;;;;;;14.97;100.00;101936.81;2616915;31;20102;-63
2021/08/13 02:50:29;;;;;;;23.85;15.50;;;;;;;14.95;100.00;101930.66;2617256;36;20030;-62
2021/08/13 02:53:03;;;;;;;22.77;15.85;;;;;;;14.93;100.00;101929.94;2617343;36;20591;-63
2021/08/13 02:55:38;;;;;;;22.38;15.10;;;;;;;14.87;100.00;101925.94;2617010;31;20114;-63
2021/08/13 02:58:11;;;;;;;22.58;15.50;;;;;;;14.82;100.00;101920.06;2616963;36;20129;-63
2021/08/13 03:00:41;;;;;;;22.58;15.88;;;;;;;14.87;100.00;101925.09;2617128;36;20072;-63
2021/08/13 03:03:12;;;;;;;26.13;15.88;;;;;;;14.84;100.00;101917.22;2617386;36;20141;-62
2021/08/13 03:05:45;;;;;;;25.08;15.73;;;;;;;14.86;100.00;101923.38;2617097;36;20615;-63
2021/08/13 03:08:14;;;;;;;23.23;15.57;;;;;;;14.83;100.00;101915.50;2617278;36;20085;-63
2021/08/13 03:10:42;;;;;;;23.30;16.03;;;;;;;14.84;100.00;101907.25;2617227;36;20158;-62
2021/08/13 03:13:11;;;;;;;25.88;16.08;;;;;;;14.86;100.00;101913.38;2617194;36;20617;-62
2021/08/13 03:15:42;;;;;;;27.02;17.55;;;;;;;14.74;100.00;101910.91;2617115;36;20061;-63
2021/08/13 03:18:11;;;;;;;23.13;15.38;;;;;;;14.77;100.00;101907.94;2616686;36;20038;-63
2021/08/13 03:20:41;;;;;;;22.77;16.33;;;;;;;14.71;100.00;101912.06;2617020;36;20057;-62
2021/08/13 03:23:11;;;;;;;26.08;16.70;;;;;;;14.68;100.00;101913.19;2616614;36;20173;-62
2021/08/13 03:25:41;;;;;;;29.02;17.23;;;;;;;14.70;100.00;101911.19;2617224;36;20114;-62
2021/08/13 03:28:09;;;;;;;23.85;15.65;;;;;;;14.69;100.00;101909.47;2616506;36;20038;-63
2021/08/13 03:30:42;;;;;;;22.13;14.70;;;;;;;14.63;100.00;101910.00;2616926;36;20046;-63
2021/08/13 03:33:12;;;;;;;26.27;16.83;;;;;;;14.62;100.00;101913.72;2617165;36;20077;-64
2021/08/13 03:35:43;;;;;;;23.48;15.70;;;;;;;14.59;100.00;101911.28;2616928;36;20030;-62
2021/08/13 03:38:11;;;;;;;24.95;15.23;;;;;;;14.57;100.00;101909.69;2616871;36;20081;-63
2021/08/13 03:40:40;;;;;;;26.38;15.90;;;;;;;14.57;100.00;101910.53;2617153;36;20077;-62
2021/08/13 03:43:08;;;;;;;21.77;15.45;;;;;;;14.57;100.00;101915.94;2617001;36;20026;-62
2021/08/13 03:45:37;;;;;;;24.98;16.58;;;;;;;14.53;100.00;101925.34;2617276;36;20022;-62
2021/08/13 03:48:06;;;;;;;27.38;16.95;;;;;;;14.49;100.00;101918.50;2616895;36;20030;-62
2021/08/13 03:50:35;;;;;;;;;;;;;;;14.45;100.00;101917.06;2617064;36;20054;-62
2021/08/13 03:53:04;;;;;;;23.58;16.88;;;;;;;14.44;100.00;101921.63;2616986;36;19939;-63
2021/08/13 03:55:33;;;;;;;23.73;16.17;;;;;;;14.43;100.00;101921.72;2617410;36;20535;-63
2021/08/13 03:58:01;;;;;;;25.30;17.33;;;;;;;14.41;100.00;101926.44;2617873;31;20460;-63
2021/08/13 04:00:29;;;;;;;25.75;17.27;;;;;;;14.40;100.00;101930.13;2616348;31;20035;-63
2021/08/13 04:02:58;;;;;;;28.67;18.50;;;;;;;14.39;100.00;101934.69;2617178;36;20539;-62
2021/08/13 04:05:30;;;;;;;25.88;16.60;;;;;;;14.39;100.00;101934.69;2617030;36;20073;-62
2021/08/13 04:07:58;;;;;;;28.75;17.95;;;;;;;14.35;100.00;101928.69;2617039;36;20122;-62
2021/08/13 04:10:28;;;;;;;25.67;18.45;;;;;;;14.34;100.00;101937.81;2616716;31;20045;-62
2021/08/13 04:12:56;;;;;;;32.40;20.30;;;;;;;14.31;100.00;101924.53;2616888;36;20042;-63
2021/08/13 04:15:25;;;;;;;27.30;17.90;;;;;;;14.35;100.00;101928.69;2616996;36;20146;-63
2021/08/13 04:17:53;;;;;;;30.98;21.10;;;;;;;14.36;100.00;101924.97;2616719;36;20150;-63
2021/08/13 04:20:22;;;;;;;34.58;21.55;;;;;;;14.40;100.00;101924.69;2616836;36;20114;-63
2021/08/13 04:22:50;;;;;;;27.73;19.27;;;;;;;14.36;100.00;101924.13;2616789;36;20039;-62
2021/08/13 04:25:18;;;;;;;35.70;22.47;;;;;;;14.41;100.00;101929.13;2616687;36;20379;-62
2021/08/13 04:27:48;;;;;;;32.85;21.92;;;;;;;14.48;100.00;101924.91;2616802;36;20422;-62
2021/08/13 04:30:16;;;;;;;32.40;22.40;;;;;;;14.51;100.00;101925.47;2616468;36;20114;-62
2021/08/13 04:32:44;;;;;;;31.97;21.47;;;;;;;14.55;100.00;101924.22;2616686;36;20042;-62
2021/08/13 04:35:13;;;;;;;35.63;22.58;;;;;;;14.58;100.00;101923.09;2617616;36;20639;-63
2021/08/13 04:37:41;;;;;;;36.47;22.27;;;;;;;14.61;100.00;101922.84;2618598;31;20495;-63
2021/08/13 04:40:11;;;;;;;40.90;25.58;;;;;;;14.63;100.00;101912.72;2617577;36;20034;-62
2021/08/13 04:42:40;;;;;;;32.47;22.38;;;;;;;14.62;100.00;101908.31;2617677;36;20077;-63
2021/08/13 04:45:11;;;;;;;33.13;23.17;;;;;;;14.76;100.00;101911.63;2617552;36;20047;-62
2021/08/13 04:47:39;;;;;;;34.67;23.00;;;;;;;14.84;100.00;101917.22;2618473;31;20529;-62
2021/08/13 04:50:08;;;;;;;42.90;27.30;;;;;;;14.84;100.00;101911.78;2617596;36;20033;-63
2021/08/13 04:52:44;;;;;;;37.35;24.85;;;;;;;14.87;100.00;101909.69;2617657;31;20061;-63
2021/08/13 04:55:13;;;;;;;41.38;26.33;;;;;;;15.02;100.00;101925.56;2617580;36;20038;-63
2021/08/13 04:57:41;;;;;;;33.95;22.10;;;;;;;15.06;100.00;101922.41;2617721;31;20038;-63
2021/08/13 05:00:12;;;;;;;39.13;24.83;;;;;;;15.23;100.00;101929.00;2616913;36;20142;-62
2021/08/13 05:02:40;;;;;;;39.70;25.55;;;;;;;15.35;100.00;101937.88;2617390;36;20062;-62
2021/08/13 05:05:09;;;;;;;43.17;27.67;;;;;;;15.50;100.00;101929.31;2617248;36;20041;-63
2021/08/13 05:07:38;;;;;;;37.97;24.70;;;;;;;15.54;100.00;101920.75;2617211;31;20186;-63
2021/08/13 05:10:12;;;;;;;38.35;26.02;;;;;;;15.63;100.00;101929.03;2617164;36;20076;-62
2021/08/13 05:12:41;;;;;;;37.28;23.77;;;;;;;15.56;100.00;101928.72;2618130;36;20090;-62
2021/08/13 05:15:11;;;;;;;;;;;;;;;15.66;100.00;101924.16;2617301;36;20070;-63
2021/08/13 05:17:40;;;;;;;45.22;27.08;;;;;;;15.71;100.00;101927.31;2617239;36;20058;-63
2021/08/13 05:20:09;;;;;;;38.75;24.42;;;;;;;15.70;100.00;101931.03;2616748;36;20034;-63
2021/08/13 05:22:38;;;;;;;40.63;25.73;;;;;;;15.80;100.00;101928.34;2617524;36;20034;-62
2021/08/13 05:25:09;;;;;;;38.22;26.90;;;;;;;15.87;100.00;101925.91;2617697;36;20030;-62
2021/08/13 05:27:39;;;;;;;41.63;26.30;;;;;;;15.96;100.00;101929.59;2617668;36;20079;-63
2021/08/13 05:30:09;;;;;;;41.80;26.40;;;;;;;16.02;100.00;101937.16;2617720;36;20038;-62
2021/08/13 05:32:41;;;;;;;34.63;24.15;;;;;;;16.11;100.00;101936.31;2617903;36;20037;-62
2021/08/13 05:35:10;;;;;;;39.58;24.63;;;;;;;16.23;100.00;101931.56;2617670;36;20113;-62
2021/08/13 05:37:39;;;;;;;35.72;23.63;;;;;;;16.33;100.00;101932.38;2617711;36;20076;-63
2021/08/13 05:40:10;;;;;;;37.33;22.08;;;;;;;16.42;100.00;101936.94;2617482;36;20040;-63
2021/08/13 05:42:38;;;;;;;35.15;23.10;;;;;;;16.56;100.00;101938.31;2617711;36;20034;-62
2021/08/13 05:45:08;;;;;;;31.23;21.83;;;;;;;16.62;100.00;101925.97;2617826;36;20451;-63
2021/08/13 05:47:38;;;;;;;30.98;21.27;;;;;;;16.85;100.00;101931.03;2617760;36;20045;-62
2021/08/13 05:50:10;;;;;;;29.42;19.63;;;;;;;16.73;100.00;101924.94;2617396;36;20034;-62
2021/08/13 05:52:39;;;;;;;31.63;20.08;;;;;;;16.70;100.00;101919.81;2617875;36;20559;-63
2021/08/13 05:55:08;;;;;;;31.87;21.10;;;;;;;16.77;100.00;101913.59;2617659;36;20026;-62
2021/08/13 05:57:36;;;;;;;29.00;19.05;;;;;;;16.84;100.00;101921.16;2617544;36;20283;-62
2021/08/13 06:00:06;;;;;;;27.20;19.07;;;;;;;16.79;100.00;101921.59;2617453;36;20150;-64
2021/08/13 06:02:35;;;;;;;30.05;19.48;;;;;;;16.81;100.00;101920.47;2617720;36;20026;-62
2021/08/13 06:05:03;;;;;;;28.75;18.70;;;;;;;16.85;100.00;101917.44;2617748;36;20037;-63
2021/08/13 06:07:33;;;;;;;28.48;17.83;;;;;;;16.95;100.00;101915.56;2617769;36;20034;-63
2021/08/13 06:10:01;;;;;;;31.30;19.27;;;;;;;16.95;100.00;101907.38;2617636;36;20049;-64
2021/08/13 06:12:29;;;;;;;28.20;18.42;;;;;;;16.98;100.00;101915.25;2617788;31;20089;-62
2021/08/13 06:14:57;;;;;;;27.30;19.67;;;;;;;17.07;100.00;101914.31;2617443;36;20126;-64
2021/08/13 06:17:26;;;;;;;28.65;17.55;;;;;;;17.08;100.00;101916.03;2617497;36;20038;-63
2021/08/13 06:19:54;;;;;;;25.13;17.77;;;;;;;17.12;100.00;101911.13;2617422;36;20559;-62
2021/08/13 06:22:22;;;;;;;24.30;16.92;;;;;;;17.26;100.00;101917.91;2617549;36;20031;-63
2021/08/13 06:24:52;;;;;;;29.83;18.50;;;;;;;17.17;100.00;101915.09;2617444;31;20031;-63
2021/08/13 06:27:20;;;;;;;25.10;16.80;;;;;;;17.11;100.00;101926.59;2616261;36;20051;-63
2021/08/13 06:29:48;;;;;;;23.60;17.03;;;;;;;17.13;100.00;101921.84;2616373;36;20084;-62
2021/08/13 06:32:18;;;;;;;25.27;15.95;;;;;;;17.19;100.00;101922.28;2617085;36;20106;-62
2021/08/13 06:34:47;;;;;;;24.75;16.05;;;;;;;17.20;100.00;101924.00;2617327;36;20069;-62
2021/08/13 06:37:15;;;;;;;28.10;16.03;;;;;;;17.23;100.00;101910.06;2617429;36;20073;-62
2021/08/13 06:39:43;;;;;;;24.67;15.63;;;;;;;17.41;100.00;101916.34;2617213;36;20030;-62
2021/08/13 06:42:13;;;;;;;23.47;14.87;;;;;;;17.44;100.00;101916.06;2617802;31;20507;-63
2021/08/13 06:44:41;;;;;;;23.20;15.30;;;;;;;17.42;100.00;101928.97;2617143;36;20075;-63
2021/08/13 06:47:09;;;;;;;21.30;14.13;;;;;;;17.53;100.00;101922.44;2617641;36;20157;-62
2021/08/13 06:49:38;;;;;;;23.67;14.57;;;;;;;17.49;100.00;101913.72;2616977;36;20191;-61
2021/08/13 06:52:07;;;;;;;22.63;15.13;;;;;;;17.62;100.00;101912.47;2617307;31;20027;-60
2021/08/13 06:54:36;;;;;;;23.45;13.98;;;;;;;17.64;100.00;101908.59;2616912;36;20027;-60
2021/08/13 06:57:04;;;;;;;24.20;14.73;;;;;;;17.62;100.00;101915.19;2616936;36;20138;-62
2021/08/13 06:59:34;;;;;;;22.40;14.32;;;;;;;17.52;100.00;101918.00;2617592;36;20081;-61
2021/08/13 07:02:03;;;;;;;18.42;13.10;;;;;;;17.73;100.00;101920.41;2617232;36;20851;-61
2021/08/13 07:04:31;;;;;;;20.77;13.27;;;;;;;17.89;100.00;101919.69;2617638;36;20435;-62
2021/08/13 07:06:59;;;;;;;20.95;13.00;;;;;;;18.01;100.00;101928.47;2617344;36;20050;-61
2021/08/13 07:09:27;;;;;;;17.45;12.68;;;;;;;18.09;100.00;101938.56;2617306;36;20043;-62
2021/08/13 07:11:55;;;;;;;20.17;13.13;;;;;;;18.02;100.00;101943.78;2617091;31;20109;-61
2021/08/13 07:14:24;;;;;;;22.97;13.10;;;;;;;18.01;100.00;101961.16;2617094;36;20461;-61
2021/08/13 07:16:53;;;;;;;24.98;13.20;;;;;;;17.97;100.00;101965.22;2617334;36;20114;-61
2021/08/13 07:19:22;;;;;;;24.67;12.63;;;;;;;18.17;100.00;101961.28;2617203;36;20114;-62
2021/08/13 07:21:50;;;;;;;18.40;12.27;;;;;;;18.13;100.00;101967.22;2617467;36;20581;-62
2021/08/13 07:24:21;;;;;;;18.17;11.73;;;;;;;18.32;100.00;101969.72;2617166;31;20030;-61
2021/08/13 07:26:49;;;;;;;16.45;11.68;;;;;;;18.45;100.00;101969.31;2617278;36;20274;-62
2021/08/13 07:29:18;;;;;;;17.92;11.43;;;;;;;18.67;100.00;101967.06;2617379;36;20038;-62
2021/08/13 07:31:47;;;;;;;;;;;;;;;18.90;100.00;101968.22;2618208;31;20475;-62
2021/08/13 07:34:16;;;;;;;18.40;12.00;;;;;;;18.83;100.00;101964.41;2617103;31;20030;-61
2021/08/13 07:36:44;;;;;;;16.73;11.90;;;;;;;19.16;100.00;101953.63;2616888;36;20034;-61
2021/08/13 07:39:13;;;;;;;18.63;10.40;;;;;;;18.81;100.00;101952.78;2617221;36;20085;-61
2021/08/13 07:41:41;;;;;;;17.98;10.20;;;;;;;18.88;100.00;101956.59;2617032;31;20299;-62
2021/08/13 07:44:10;;;;;;;16.23;9.30;;;;;;;19.09;100.00;101958.03;2617454;36;20179;-62
2021/08/13 07:46:38;;;;;;;16.02;10.73;;;;;;;19.15;100.00;101954.63;2617038;36;20109;-61
2021/08/13 07:49:06;;;;;;;14.50;10.02;;;;;;;19.22;100.00;101958.41;2617043;36;20035;-62
2021/08/13 07:51:36;;;;;;;13.95;9.95;;;;;;;19.11;100.00;101956.00;2617329;36;20162;-61
2021/08/13 07:54:04;;;;;;;14.48;9.85;;;;;;;19.22;100.00;101961.16;2617121;31;20022;-63
2021/08/13 07:56:32;;;;;;;13.37;9.30;;;;;;;19.14;100.00;101991.16;2616822;36;20160;-62
2021/08/13 07:59:00;;;;;;;14.87;10.00;;;;;;;19.17;100.00;101996.28;2616904;36;20346;-61
2021/08/13 08:01:29;;;;;;;15.25;9.93;;;;;;;19.21;100.00;101999.53;2616844;36;20149;-63
2021/08/13 08:03:57;;;;;;;14.50;9.63;;;;;;;19.37;100.00;101985.06;2617296;36;20038;-62
2021/08/13 08:06:28;;;;;;;13.77;9.50;;;;;;;19.42;100.00;101977.25;2616820;36;20118;-63
2021/08/13 08:08:58;;;;;;;12.10;9.05;;;;;;;19.41;100.00;101962.72;2617499;31;20511;-62
2021/08/13 08:11:26;;;;;;;14.80;9.50;;;;;;;19.15;100.00;101979.19;2617375;36;20034;-61
2021/08/13 08:13:54;;;;;;;18.10;8.65;;;;;;;19.35;100.00;101987.13;2617130;36;20027;-62
2021/08/13 08:16:22;;;;;;;14.20;7.90;;;;;;;19.58;100.00;101977.28;2616936;36;20122;-61
2021/08/13 08:18:51;;;;;;;12.20;8.27;;;;;;;20.00;100.00;101996.47;2617341;36;20051;-62
2021/08/13 08:21:19;;;;;;;12.10;7.10;;;;;;;20.15;100.00;102011.13;2616551;36;20089;-61
2021/08/13 08:23:47;;;;;;;13.80;7.35;;;;;;;20.12;100.00;101997.81;2616409;36;20034;-62
2021/08/13 08:26:17;;;;;;;10.87;8.07;;;;;;;19.38;100.00;101992.25;2616584;31;20645;-61
2021/08/13 08:28:45;;;;;;;10.32;7.43;;;;;;;19.52;100.00;101988.88;2616996;36;20287;-61
2021/08/13 08:31:14;;;;;;;12.57;7.70;;;;;;;20.11;100.00;101993.38;2617208;31;20031;-61
2021/08/13 08:33:42;;;;;;;12.20;7.38;;;;;;;20.10;100.00;101986.22;2617141;36;20030;-61
2021/08/13 08:36:11;;;;;;;12.55;7.45;;;;;;;20.25;100.00;101984.47;2617555;31;20408;-62
2021/08/13 08:38:40;;;;;;;13.38;8.25;;;;;;;20.19;100.00;101987.06;2617339;36;20170;-62
2021/08/13 08:41:10;;;;;;;12.20;8.18;;;;;;;20.34;100.00;101979.00;2616891;31;20169;-62
2021/08/13 08:43:40;;;;;;;12.70;8.23;;;;;;;19.99;100.00;101995.59;2617204;36;20088;-61
2021/08/13 08:46:08;;;;;;;13.82;8.00;;;;;;;20.46;100.00;101997.63;2616965;36;20117;-60
2021/08/13 08:48:38;;;;;;;14.02;8.40;;;;;;;20.73;100.00;102008.34;2617075;36;20031;-61
2021/08/13 08:51:08;;;;;;;11.68;7.82;;;;;;;21.16;100.00;101997.94;2617226;36;20049;-61
2021/08/13 08:53:40;;;;;;;11.13;7.93;;;;;;;20.97;100.00;102005.53;2617010;31;20137;-61
2021/08/13 08:56:09;;;;;;;13.10;8.68;;;;;;;20.22;100.00;102001.22;2616890;36;20034;-61
2021/08/13 08:58:38;;;;;;;11.00;7.88;;;;;;;20.35;100.00;102010.81;2617933;31;20534;-62
2021/08/13 09:01:08;;;;;;;10.07;7.25;;;;;;;20.82;100.00;102007.31;2616829;36;20147;-63
2021/08/13 09:03:36;;;;;;;10.68;7.18;;;;;;;20.88;100.00;102000.28;2617088;36;20038;-63
2021/08/13 09:06:06;;;;;;;9.40;7.25;;;;;;;21.38;100.00;102012.69;2614154;36;20093;-62
2021/08/13 09:08:34;;;;;;;11.93;7.63;;;;;;;21.46;100.00;102015.38;2616929;36;20110;-62
2021/08/13 09:11:02;;;;;;;10.45;7.28;;;;;;;21.52;100.00;102009.22;2616686;36;20122;-61
2021/08/13 09:13:33;;;;;;;11.88;7.70;;;;;;;22.31;100.00;102012.72;2617218;36;20125;-62
2021/08/13 09:16:13;;;;;;;11.07;7.03;;;;;;;22.26;100.00;102018.78;2616847;36;20070;-61
2021/08/13 09:18:42;;;;;;;8.10;5.55;;;;;;;22.74;100.00;102022.06;2616990;36;20041;-62
2021/08/13 09:21:11;;;;;;;11.13;6.78;;;;;;;22.59;100.00;102015.72;2617887;36;20038;-61
2021/08/13 09:23:41;;;;;;;10.85;6.25;;;;;;;22.80;100.00;102025.09;2617729;36;20212;-63
2021/08/13 09:26:12;;;;;;;8.60;6.60;;;;;;;22.09;100.00;102030.91;2617671;36;20047;-62
2021/08/13 09:28:46;;;;;;;10.07;6.57;;;;;;;21.61;100.00;102033.81;2617738;36;20569;-62
2021/08/13 09:31:18;;;;;;;10.07;5.32;;;;;;;21.38;100.00;102034.59;2618191;36;20431;-62
2021/08/13 09:33:48;;;;;;;6.35;5.32;;;;;;;21.87;100.00;102039.81;2617223;36;20082;-61
2021/08/13 09:36:18;;;;;;;9.40;4.90;;;;;;;21.80;100.00;102036.06;2617654;36;20061;-62
2021/08/13 09:38:47;;;;;;;8.35;4.20;;;;;;;22.43;100.00;102051.56;2617823;36;20488;-61
2021/08/13 09:41:17;;;;;;;5.40;4.00;;;;;;;22.48;100.00;102043.63;2617633;36;20081;-62
2021/08/13 09:43:57;;;;;;;7.43;3.88;;;;;;;22.25;100.00;102047.22;2617540;36;20042;-62
2021/08/13 09:46:30;;;;;;;8.77;4.28;;;;;;;22.37;100.00;102054.00;2617491;36;20022;-63
2021/08/13 09:49:13;;;;;;;8.98;3.85;;;;;;;21.63;100.00;102051.78;2617598;36;20023;-62
2021/08/13 09:51:42;;;;;;;7.57;4.22;;;;;;;21.71;100.00;102056.34;2617744;31;20030;-62
2021/08/13 09:54:12;;;;;;;7.05;3.97;;;;;;;21.48;100.00;102048.06;2617357;36;20027;-61
2021/08/13 09:56:42;;;;;;;9.38;4.80;;;;;;;21.29;100.00;102050.22;2617426;36;20121;-61
2021/08/13 09:59:15;;;;;;;11.73;4.10;;;;;;;21.71;100.00;102050.88;2617349;36;20065;-61
2021/08/13 10:01:46;;;;;;;6.53;4.05;;;;;;;21.57;100.00;102052.53;2617536;36;20087;-63
2021/08/13 10:04:15;;;;;;;5.28;3.65;;;;;;;21.87;100.00;102056.25;2617375;36;20664;-62
2021/08/13 10:06:46;;;;;;;7.13;4.32;;;;;;;21.95;100.00;102055.34;2617615;36;20043;-62
2021/08/13 10:09:25;;;;;;;5.13;3.55;;;;;;;21.85;100.00;102050.09;2617513;36;20170;-62
2021/08/13 10:11:59;;;;;;;6.65;4.30;;;;;;;22.27;100.00;102061.59;2618135;36;20427;-63
2021/08/13 10:14:32;;;;;;;6.20;3.60;;;;;;;22.52;100.00;102065.00;2617089;36;20041;-62
2021/08/13 10:17:13;;;;;;;8.40;3.72;;;;;;;21.87;100.00;102056.25;2617457;36;20027;-62
2021/08/13 10:19:43;;;;;;;4.78;2.95;;;;;;;22.18;100.00;102062.72;2617459;36;20077;-62
2021/08/13 10:22:12;;;;;;;7.25;3.63;;;;;;;22.23;100.00;102071.22;2617319;36;20547;-63
2021/08/13 10:24:43;;;;;;;;;;;;;;;21.97;100.00;102066.97;2617523;36;20073;-64
2021/08/13 10:27:12;;;;;;;7.32;3.60;;;;;;;22.54;100.00;102068.44;2617551;36;20420;-63
2021/08/13 10:29:40;;;;;;;;;;;;;;;22.71;100.00;102063.59;2618192;31;20035;-65
2021/08/13 10:32:09;;;;;;;8.05;3.60;;;;;;;22.50;100.00;102069.84;2617300;36;20077;-63
2021/08/13 10:34:39;;;;;;;8.13;3.60;;;;;;;22.35;100.00;102072.53;2617620;36;20077;-63
2021/08/13 10:37:13;;;;;;;5.88;3.20;;;;;;;22.47;100.00;102074.84;2617551;36;20069;-64
2021/08/13 10:39:43;;;;;;;7.30;3.10;;;;;;;22.54;100.00;102065.69;2617417;36;20023;-63
2021/08/13 10:42:17;;;;;;;6.15;3.33;;;;;;;23.27;100.00;102056.84;2617589;36;20038;-63
2021/08/13 10:44:50;;;;;;;6.03;3.00;;;;;;;23.16;100.00;102074.66;2617574;36;20150;-63
2021/08/13 10:47:21;;;;;;;6.65;3.10;;;;;;;22.77;100.00;102062.00;2617314;36;20396;-63
2021/08/13 10:49:53;;;;;;;7.40;3.13;;;;;;;23.35;100.00;102058.59;2617523;36;20027;-64
2021/08/13 10:52:35;;;;;;;6.72;2.97;;;;;;;23.11;100.00;102066.13;2617722;31;20113;-63
2021/08/13 10:55:03;;;;;;;4.03;2.47;;;;;;;22.49;100.00;102076.34;2616022;31;20162;-63
2021/08/13 10:57:59;;;;;;;3.97;2.58;;;;;;;22.62;100.00;102074.88;2617380;36;20152;-63
2021/08/13 11:00:27;;;;;;;6.10;2.78;;;;;;;22.65;100.00;102069.00;2617095;36;20099;-63
2021/08/13 11:03:18;;;;;;;6.15;2.80;;;;;;;23.07;100.00;102062.88;2617290;36;20049;-63
2021/08/13 11:05:58;;;;;;;6.45;2.97;;;;;;;22.67;100.00;102073.28;2617328;36;20030;-64
2021/08/13 11:11:12;;;;;;;9.02;3.20;;;;;;;22.60;100.00;102064.09;2616330;36;20046;-63
2021/08/13 11:13:42;;;;;;;6.85;2.58;;;;;;;22.90;100.00;102077.84;2617528;36;20069;-64
2021/08/13 11:16:35;;;;;;;4.95;2.72;;;;;;;22.71;100.00;102080.06;2617085;36;20065;-63
2021/08/13 11:19:06;;;;;;;5.88;3.00;;;;;;;23.02;100.00;102080.97;2617199;36;20114;-63
2021/08/13 11:21:37;;;;;;;7.35;2.67;;;;;;;22.73;100.00;102082.63;2617549;31;20142;-63